Главная страница
METAR-TAF:

METAR-TAF

Аэропорты :

Каструп

Копенгаген, Дания

широта: 55-37N, долгота: 012-39E, высота над уровнем моря: 5 м

Текущие метеонаблюдения

Эта сводка был подготовлена 18 минут назад, в 21:50 UTC
Ветер 4 Узел от западный
Температура 15°C
Влажность 72%
Давление 1016 hPa
Видимость 10 км и более
Нет облачности ниже 1500 м, и нет кучево-дождевой облачности

METAR: EKCH 242150Z 28004KT CAVOK 15/10 Q1016 NOSIG

Время: 00:08 (22:08 UTC)

Прогноз

Эта сводка был подготовлена 5 часа и 5 минут назад, в 17:03 UTC
Прогноз действительный с 24-го 18 UTC до 25-го 18 UTC
Ветер 8 Узел от западный
Видимость 10 км и более
Отдельные облака на высоте 3000 фута

TAF: EKCH 241703Z 2418/2518 28008KT 9999 SCT030

Метеонаблюдения и прогнозы для более 4000 аэропортов (сводки METAR и TAF).

Имеющиеся станции представлены на карте желтыми и красными точками.

Чтобы увидеть название станции, наведите на нее мышь.

Затем щелкните, чтобы увидеть метеонаблюдения и метеопрогнозы.

Управление картой: чтобы увеличить масштаб, щелкните зеленые кнопки с черным крестиком; чтобы уменьшить масштаб, щелкните зеленую кнопку с тире; для просмотра соседних карт щелкайте зеленые стрелки.


METAR-TAF: